Time;durP1;ratioP1;P1;durP2;ratioP2;P2;SDS_P1;SDS_P2;PMS_P1;PMS_P2;Temp;Humidity;BMP_temperature;BMP_pressure;BME280_temperature;BME280_humidity;BME280_pressure;Samples;Min_cycle;Max_cycle;Signal;HPM_P1;HPM_P2
2023/09/17 00:02:24;;;;;;;853.60;123.63;;;14.10;99.90;;;;;;4985542;28;20117;-58
2023/09/17 00:04:50;;;;;;;53.53;43.92;;;14.00;99.90;;;;;;4980840;28;20051;-56
2023/09/17 00:07:15;;;;;;;5.18;4.30;;;14.00;99.90;;;;;;4991905;28;20120;-57
2023/09/17 00:09:41;;;;;;;4.53;3.55;;;14.00;99.90;;;;;;4994064;28;20142;-58
2023/09/17 00:12:07;;;;;;;19.85;17.90;;;14.00;99.90;;;;;;4995415;28;20026;-57
2023/09/17 00:14:33;;;;;;;9.50;8.82;;;14.10;99.90;;;;;;4986455;28;20493;-57
2023/09/17 00:16:59;;;;;;;4.47;4.07;;;14.10;99.90;;;;;;4992985;28;20062;-58
2023/09/17 00:19:26;;;;;;;59.85;16.02;;;14.10;99.90;;;;;;4992011;28;20034;-58
2023/09/17 00:21:52;;;;;;;84.32;78.25;;;14.10;99.90;;;;;;4994871;28;20034;-57
2023/09/17 00:24:17;;;;;;;60.85;14.40;;;14.00;99.90;;;;;;4990971;28;20034;-58
2023/09/17 00:26:43;;;;;;;36.67;15.77;;;14.00;99.90;;;;;;4983585;28;20037;-58
2023/09/17 00:29:08;;;;;;;47.17;42.20;;;14.00;99.90;;;;;;4997094;28;20113;-57
2023/09/17 00:31:34;;;;;;;9.90;4.22;;;14.00;99.90;;;;;;4988495;28;20563;-57
2023/09/17 00:34:00;;;;;;;4.63;4.03;;;14.00;99.90;;;;;;4998640;28;20097;-57
2023/09/17 00:36:26;;;;;;;5.13;4.70;;;14.00;99.90;;;;;;4995637;28;20061;-58
2023/09/17 00:38:52;;;;;;;4.35;3.95;;;14.10;99.90;;;;;;4992979;28;20516;-57
2023/09/17 00:41:17;;;;;;;5.32;4.93;;;14.10;99.90;;;;;;4982875;28;20055;-59
2023/09/17 00:43:43;;;;;;;4.10;3.78;;;14.10;99.90;;;;;;4993818;28;20083;-58
2023/09/17 00:46:09;;;;;;;4.18;3.88;;;14.10;99.90;;;;;;4997512;28;20046;-58
2023/09/17 00:48:35;;;;;;;236.50;29.90;;;14.00;99.90;;;;;;4998833;28;20026;-58
2023/09/17 00:51:02;;;;;;;5.38;3.42;;;14.00;99.90;;;;;;4999657;28;20087;-58
2023/09/17 00:53:28;;;;;;;5.38;4.88;;;14.00;99.90;;;;;;4954727;28;20186;-58
2023/09/17 00:55:54;;;;;;;4.40;4.00;;;14.00;99.90;;;;;;4978528;28;20530;-57
2023/09/17 00:58:21;;;;;;;4.55;3.97;;;14.00;99.90;;;;;;4978035;28;20042;-59
2023/09/17 01:00:46;;;;;;;4.70;4.30;;;14.00;99.90;;;;;;5003263;28;20066;-58
2023/09/17 01:03:12;;;;;;;4.05;3.65;;;14.00;99.90;;;;;;4983946;28;20105;-57
2023/09/17 01:05:42;;;;;;;4.47;4.07;;;14.10;99.90;;;;;;4991306;28;20400;-57
2023/09/17 01:08:09;;;;;;;171.02;25.73;;;14.10;99.90;;;;;;4992565;28;20049;-58
2023/09/17 01:10:40;;;;;;;4.78;4.38;;;14.10;99.90;;;;;;4997355;28;20080;-58
2023/09/17 01:13:06;;;;;;;;;;;14.20;99.90;;;;;;4994493;28;20793;-58
2023/09/17 01:15:34;;;;;;;4.15;3.85;;;14.20;99.90;;;;;;4987108;28;20294;-57
2023/09/17 01:18:05;;;;;;;4.10;3.80;;;14.20;99.90;;;;;;4978151;28;20934;-58
2023/09/17 01:20:37;;;;;;;5.28;4.88;;;14.20;99.90;;;;;;4993171;28;20066;-58
2023/09/17 01:23:11;;;;;;;5.28;4.47;;;14.10;99.90;;;;;;4988998;28;20494;-58
2023/09/17 01:26:01;;;;;;;4.90;4.50;;;14.10;99.90;;;;;;4988918;28;20121;-58
2023/09/17 01:28:28;;;;;;;403.52;29.65;;;14.00;99.90;;;;;;4990968;28;20034;-59
2023/09/17 01:30:54;;;;;;;1999.90;999.90;;;13.90;99.90;;;;;;4987802;28;20023;-57
2023/09/17 01:33:20;;;;;;;1999.90;999.90;;;13.80;99.90;;;;;;4994535;28;20460;-58
2023/09/17 01:36:03;;;;;;;1999.90;999.90;;;13.70;99.90;;;;;;4988447;28;20051;-57
2023/09/17 01:38:33;;;;;;;1999.90;999.90;;;13.60;99.90;;;;;;4983366;28;20030;-57
2023/09/17 01:41:02;;;;;;;1999.90;999.90;;;13.60;99.90;;;;;;4983469;28;20026;-58
2023/09/17 01:43:29;;;;;;;1999.90;999.90;;;13.50;99.90;;;;;;4986752;28;20065;-58
2023/09/17 01:45:55;;;;;;;1999.90;999.90;;;13.50;99.90;;;;;;4990816;28;20516;-57
2023/09/17 01:48:22;;;;;;;19.23;18.23;;;13.50;99.90;;;;;;4990240;28;20030;-57
2023/09/17 01:50:50;;;;;;;6.28;5.78;;;13.50;99.90;;;;;;4993738;28;20509;-58
2023/09/17 01:53:16;;;;;;;152.98;138.63;;;13.50;99.90;;;;;;4988555;28;20046;-58
2023/09/17 01:55:42;;;;;;;1999.90;999.90;;;13.50;99.90;;;;;;4991098;28;20058;-57
2023/09/17 01:58:10;;;;;;;98.38;76.18;;;13.50;99.90;;;;;;4990719;28;20054;-58
2023/09/17 02:00:36;;;;;;;67.38;64.63;;;13.50;99.90;;;;;;4990218;28;20057;-57
2023/09/17 02:03:04;;;;;;;78.10;74.85;;;13.60;99.90;;;;;;4985670;28;20784;-59
2023/09/17 02:05:30;;;;;;;1999.90;999.90;;;13.60;99.90;;;;;;4990868;28;20568;-57
2023/09/17 02:07:55;;;;;;;1999.90;999.90;;;13.60;99.90;;;;;;4991103;28;20063;-58
2023/09/17 02:10:21;;;;;;;1999.90;999.90;;;13.70;99.90;;;;;;4990331;28;20509;-57
2023/09/17 02:12:47;;;;;;;27.85;26.73;;;13.70;99.90;;;;;;4991828;28;20500;-58
2023/09/17 02:15:13;;;;;;;191.60;180.63;;;13.70;99.90;;;;;;4988318;28;20044;-57
2023/09/17 02:17:39;;;;;;;102.15;92.53;;;13.80;99.90;;;;;;4978572;28;20035;-58
2023/09/17 02:20:10;;;;;;;131.18;124.88;;;13.80;99.90;;;;;;4983653;28;20030;-59
2023/09/17 02:22:39;;;;;;;1999.90;999.90;;;13.80;99.90;;;;;;5002127;28;20034;-57
2023/09/17 02:25:06;;;;;;;1999.90;999.90;;;13.80;99.90;;;;;;4991333;28;20405;-57
2023/09/17 02:27:32;;;;;;;1999.90;999.90;;;13.80;99.90;;;;;;5003933;28;20050;-58
2023/09/17 02:29:57;;;;;;;1999.90;999.90;;;13.80;99.90;;;;;;4989315;28;20674;-57
2023/09/17 02:32:23;;;;;;;1999.90;999.90;;;13.80;99.90;;;;;;4986520;28;20034;-57
2023/09/17 02:34:49;;;;;;;1999.90;999.90;;;13.80;99.90;;;;;;4988115;28;20028;-57
2023/09/17 02:37:15;;;;;;;1999.90;999.90;;;13.80;99.90;;;;;;4991625;28;20518;-58
2023/09/17 02:39:41;;;;;;;1999.90;999.90;;;13.80;99.90;;;;;;4995869;28;20493;-57
2023/09/17 02:42:07;;;;;;;1999.90;999.90;;;13.80;99.90;;;;;;4993910;28;20726;-58
2023/09/17 02:44:32;;;;;;;1999.90;999.90;;;13.80;99.90;;;;;;4991769;28;20034;-59
2023/09/17 02:46:58;;;;;;;1999.90;999.90;;;13.80;99.90;;;;;;4996441;28;20025;-58
2023/09/17 02:49:23;;;;;;;1999.90;999.90;;;13.80;99.90;;;;;;4987665;28;20389;-58
2023/09/17 02:51:50;;;;;;;1999.90;999.90;;;13.90;99.90;;;;;;4993335;28;20042;-57
2023/09/17 02:54:16;;;;;;;1999.90;999.90;;;13.90;99.90;;;;;;4991706;28;20038;-59
2023/09/17 02:56:42;;;;;;;1999.90;999.90;;;13.90;99.90;;;;;;4980593;28;20038;-58
2023/09/17 02:59:08;;;;;;;1999.90;999.90;;;14.00;99.90;;;;;;4987503;28;20034;-58
2023/09/17 03:01:35;;;;;;;1999.90;999.90;;;14.10;99.90;;;;;;4990340;28;20370;-58
2023/09/17 03:04:04;;;;;;;1999.90;999.90;;;14.10;99.90;;;;;;4991907;28;20026;-58
2023/09/17 03:06:30;;;;;;;1999.90;999.90;;;14.10;99.90;;;;;;4985847;28;20117;-57
2023/09/17 03:08:56;;;;;;;1999.90;999.90;;;14.20;99.90;;;;;;4985299;28;20072;-57
2023/09/17 03:11:23;;;;;;;1999.90;999.90;;;14.30;99.90;;;;;;4985050;28;20490;-57
2023/09/17 03:13:50;;;;;;;1999.90;999.90;;;14.30;99.90;;;;;;4987588;28;20042;-57
2023/09/17 03:16:16;;;;;;;1999.90;999.90;;;14.30;99.90;;;;;;4983487;28;20026;-58
2023/09/17 03:18:45;;;;;;;1999.90;999.90;;;14.40;99.90;;;;;;4981905;28;20666;-58
2023/09/17 03:21:11;;;;;;;1999.90;999.90;;;14.40;99.90;;;;;;4992383;28;20049;-57
2023/09/17 03:23:38;;;;;;;1999.90;999.90;;;14.40;99.90;;;;;;4988777;28;20038;-58
2023/09/17 03:26:05;;;;;;;203.10;28.45;;;14.30;99.90;;;;;;4992235;28;20035;-57
2023/09/17 03:28:31;;;;;;;480.35;47.65;;;14.20;99.90;;;;;;4990235;28;20112;-58
2023/09/17 03:30:58;;;;;;;9.95;8.65;;;14.20;99.90;;;;;;4991194;28;20652;-58
2023/09/17 03:33:23;;;;;;;7.72;7.30;;;14.10;99.90;;;;;;4981329;28;20077;-57
2023/09/17 03:35:49;;;;;;;12.48;10.00;;;14.00;99.90;;;;;;4990343;28;20026;-58
2023/09/17 03:38:15;;;;;;;16.90;15.52;;;14.00;99.90;;;;;;4991137;28;20677;-58
2023/09/17 03:40:41;;;;;;;326.50;47.30;;;14.00;99.90;;;;;;4989623;28;20037;-58
2023/09/17 03:43:08;;;;;;;4.63;4.25;;;14.00;99.90;;;;;;4989476;28;20105;-59
2023/09/17 03:45:34;;;;;;;288.63;60.80;;;14.00;99.90;;;;;;4991566;28;20038;-58
2023/09/17 03:48:00;;;;;;;341.08;61.67;;;14.00;99.90;;;;;;4993822;28;20035;-58
2023/09/17 03:50:27;;;;;;;8.27;7.45;;;14.00;99.90;;;;;;4995219;28;20109;-59
2023/09/17 03:52:56;;;;;;;6.03;5.53;;;14.00;99.90;;;;;;4994368;28;20479;-58
2023/09/17 03:55:23;;;;;;;4.25;3.85;;;14.00;99.90;;;;;;4990793;28;20035;-57
2023/09/17 03:57:49;;;;;;;5.10;4.63;;;14.00;99.90;;;;;;4992372;28;20031;-57
2023/09/17 04:00:16;;;;;;;5.32;4.90;;;14.00;99.90;;;;;;4992867;28;20034;-58
2023/09/17 04:02:42;;;;;;;9.27;8.38;;;14.00;99.90;;;;;;4991457;28;20120;-59
2023/09/17 04:05:13;;;;;;;11.88;10.95;;;14.00;99.90;;;;;;4992372;28;20019;-58
2023/09/17 04:07:44;;;;;;;13.93;13.07;;;14.10;99.90;;;;;;4991898;28;20034;-59
2023/09/17 04:10:10;;;;;;;12.52;11.93;;;14.10;99.90;;;;;;4988300;28;20052;-58
2023/09/17 04:12:37;;;;;;;15.10;14.13;;;14.10;99.90;;;;;;4994291;28;20039;-58
2023/09/17 04:15:11;;;;;;;14.63;13.57;;;14.10;99.90;;;;;;4992982;28;20749;-58
2023/09/17 04:17:37;;;;;;;9.20;8.50;;;14.10;99.90;;;;;;4991014;28;20065;-58
2023/09/17 04:20:18;;;;;;;8.23;7.57;;;14.10;99.90;;;;;;4995643;28;20476;-58
2023/09/17 04:22:46;;;;;;;7.85;7.22;;;14.20;99.90;;;;;;4991439;28;20018;-58
2023/09/17 04:25:13;;;;;;;5.88;5.25;;;14.10;99.90;;;;;;4991071;28;20528;-58
2023/09/17 04:27:44;;;;;;;5.28;4.65;;;14.10;99.90;;;;;;4989585;28;20095;-59
2023/09/17 04:30:16;;;;;;;5.07;4.57;;;14.10;99.90;;;;;;4999192;28;20041;-58
2023/09/17 04:32:43;;;;;;;4.90;4.50;;;14.10;99.90;;;;;;4978354;28;20034;-58
2023/09/17 04:35:10;;;;;;;8.38;7.88;;;14.20;99.90;;;;;;4977070;28;20031;-57
2023/09/17 04:37:39;;;;;;;4.90;4.28;;;14.10;99.90;;;;;;4985055;28;20026;-58
2023/09/17 04:40:08;;;;;;;5.20;4.65;;;14.10;99.90;;;;;;4967112;28;20038;-58
2023/09/17 04:42:36;;;;;;;5.35;4.85;;;14.10;99.90;;;;;;4991553;28;20056;-59
2023/09/17 04:45:04;;;;;;;4.90;4.40;;;14.10;99.90;;;;;;4984900;28;20023;-58
2023/09/17 04:47:31;;;;;;;6.60;4.68;;;14.10;99.90;;;;;;4986224;28;20034;-59
2023/09/17 04:49:56;;;;;;;4.53;4.13;;;14.10;99.90;;;;;;4990629;28;20021;-59
2023/09/17 04:52:22;;;;;;;4.95;4.38;;;14.10;99.90;;;;;;4988048;28;20125;-57
2023/09/17 04:54:47;;;;;;;4.40;3.97;;;14.10;99.90;;;;;;4995390;28;20027;-58
2023/09/17 04:57:13;;;;;;;5.25;4.07;;;14.10;99.90;;;;;;4991174;28;20100;-57
2023/09/17 04:59:39;;;;;;;5.22;4.47;;;14.10;99.90;;;;;;4994610;28;20062;-58
2023/09/17 05:02:04;;;;;;;4.95;4.45;;;14.10;99.90;;;;;;4989737;28;20026;-58
2023/09/17 05:04:30;;;;;;;5.97;4.30;;;14.10;99.90;;;;;;4987164;28;20478;-57
2023/09/17 05:06:56;;;;;;;5.03;4.18;;;14.20;99.90;;;;;;4987087;28;20034;-58
2023/09/17 05:09:22;;;;;;;4.95;4.45;;;14.20;99.90;;;;;;4980731;28;20074;-58
2023/09/17 05:11:48;;;;;;;4.88;4.32;;;14.20;99.90;;;;;;4984421;28;20100;-58
2023/09/17 05:14:13;;;;;;;5.15;4.75;;;14.30;99.90;;;;;;4988555;28;20034;-59
2023/09/17 05:16:40;;;;;;;4.10;3.80;;;14.30;99.90;;;;;;4990791;28;20033;-58
2023/09/17 05:19:06;;;;;;;5.38;4.55;;;14.30;99.90;;;;;;4995519;28;20549;-58
2023/09/17 05:21:31;;;;;;;4.82;4.35;;;14.30;99.90;;;;;;4992970;28;20030;-58
2023/09/17 05:23:57;;;;;;;5.05;4.65;;;14.40;99.90;;;;;;4990274;28;20035;-58
2023/09/17 05:26:22;;;;;;;5.45;4.72;;;14.40;99.90;;;;;;4991157;28;20508;-57
2023/09/17 05:28:48;;;;;;;4.70;4.30;;;14.40;99.90;;;;;;4995088;28;20026;-58
2023/09/17 05:31:14;;;;;;;4.68;4.28;;;14.40;99.90;;;;;;4992938;28;20049;-58
2023/09/17 05:33:39;;;;;;;5.00;4.60;;;14.40;99.90;;;;;;4992187;28;20064;-59
2023/09/17 05:36:05;;;;;;;4.88;4.40;;;14.40;99.90;;;;;;4989254;28;20042;-59
2023/09/17 05:38:31;;;;;;;4.95;4.45;;;14.50;99.90;;;;;;4992225;28;20129;-58
2023/09/17 05:40:57;;;;;;;4.97;4.57;;;14.50;99.90;;;;;;4986024;28;20038;-59
2023/09/17 05:43:25;;;;;;;3.78;3.47;;;14.50;99.90;;;;;;4987788;28;20092;-59
2023/09/17 05:45:56;;;;;;;4.43;4.10;;;14.60;99.90;;;;;;4987946;28;20506;-59
2023/09/17 05:48:22;;;;;;;4.65;4.25;;;14.60;99.90;;;;;;4989772;28;20056;-59
2023/09/17 05:50:50;;;;;;;4.22;3.92;;;14.60;99.90;;;;;;4990070;28;20022;-58
2023/09/17 05:53:16;;;;;;;4.70;4.30;;;14.60;99.90;;;;;;4991656;28;20065;-57
2023/09/17 05:55:42;;;;;;;5.22;4.72;;;14.60;99.90;;;;;;4992515;28;20065;-59
2023/09/17 05:58:08;;;;;;;4.28;3.88;;;14.60;99.90;;;;;;4993089;28;20167;-58
2023/09/17 06:00:33;;;;;;;5.13;4.72;;;14.70;99.90;;;;;;4991448;28;20176;-59
2023/09/17 06:02:59;;;;;;;4.38;4.07;;;14.80;99.90;;;;;;4989231;28;20046;-58
2023/09/17 06:05:25;;;;;;;4.97;4.57;;;14.90;99.90;;;;;;4992232;28;20053;-58
2023/09/17 06:07:51;;;;;;;4.82;4.43;;;15.00;99.90;;;;;;4988898;28;20031;-59
2023/09/17 06:10:17;;;;;;;4.53;4.13;;;15.10;99.90;;;;;;4986600;28;20058;-58
2023/09/17 06:12:42;;;;;;;4.50;4.10;;;15.20;99.90;;;;;;4982977;28;20056;-58
2023/09/17 06:15:08;;;;;;;5.22;4.72;;;15.30;99.90;;;;;;4982879;28;20040;-57
2023/09/17 06:17:34;;;;;;;4.55;4.15;;;15.40;99.90;;;;;;4983669;28;20046;-58
2023/09/17 06:20:00;;;;;;;4.72;4.38;;;15.50;99.90;;;;;;4984240;28;20041;-58
2023/09/17 06:22:25;;;;;;;4.97;4.53;;;15.60;99.90;;;;;;4989376;28;20125;-59
2023/09/17 06:24:51;;;;;;;4.78;4.38;;;15.70;99.90;;;;;;5000183;28;20497;-58
2023/09/17 06:27:17;;;;;;;4.72;4.32;;;15.80;99.90;;;;;;4992834;28;20078;-58
2023/09/17 06:29:43;;;;;;;4.63;4.22;;;15.80;99.90;;;;;;4992019;28;20027;-59
2023/09/17 06:32:09;;;;;;;6.45;5.95;;;15.80;99.90;;;;;;4993073;28;20034;-58
2023/09/17 06:34:35;;;;;;;5.38;4.32;;;15.90;99.90;;;;;;4987587;28;20030;-58
2023/09/17 06:37:01;;;;;;;5.22;4.72;;;15.90;99.90;;;;;;4988480;28;20122;-59
2023/09/17 06:39:27;;;;;;;5.50;5.03;;;15.90;99.90;;;;;;5000810;28;20037;-59
2023/09/17 06:41:53;;;;;;;5.28;4.78;;;15.90;99.90;;;;;;4991321;28;20030;-58
2023/09/17 06:44:18;;;;;;;5.18;4.78;;;16.00;99.90;;;;;;4989346;28;20057;-58
2023/09/17 06:46:44;;;;;;;4.63;4.22;;;16.00;99.90;;;;;;4987498;28;20610;-57
2023/09/17 06:49:10;;;;;;;5.38;4.97;;;16.10;99.90;;;;;;4991068;28;20632;-58
2023/09/17 06:51:36;;;;;;;5.13;4.63;;;16.20;99.90;;;;;;4989860;28;20042;-58
2023/09/17 06:54:03;;;;;;;4.60;4.20;;;16.30;99.90;;;;;;4988611;28;20620;-59
2023/09/17 06:56:29;;;;;;;4.90;4.50;;;16.50;99.90;;;;;;4987104;28;20161;-59
2023/09/17 06:58:55;;;;;;;4.15;3.78;;;16.60;99.90;;;;;;4988786;28;20038;-59
2023/09/17 07:01:21;;;;;;;4.97;4.57;;;16.80;99.90;;;;;;4983955;28;20030;-59
2023/09/17 07:03:47;;;;;;;5.03;4.63;;;16.90;99.90;;;;;;4984242;28;20060;-58
2023/09/17 07:06:13;;;;;;;5.13;4.72;;;16.90;99.90;;;;;;4996602;28;20463;-58
2023/09/17 07:08:38;;;;;;;4.60;4.20;;;17.00;99.90;;;;;;4994541;28;20494;-58
2023/09/17 07:11:04;;;;;;;4.55;4.15;;;17.00;99.90;;;;;;4996816;28;20105;-58
2023/09/17 07:13:30;;;;;;;4.93;4.50;;;17.00;99.90;;;;;;4995576;28;20030;-58
2023/09/17 07:15:56;;;;;;;7.43;4.60;;;17.00;99.90;;;;;;4988995;28;20069;-58
2023/09/17 07:18:22;;;;;;;5.05;4.55;;;17.10;99.90;;;;;;4986387;28;20071;-56
2023/09/17 07:20:49;;;;;;;4.07;3.78;;;17.20;99.90;;;;;;4989317;28;20034;-59
2023/09/17 07:23:16;;;;;;;4.07;3.78;;;17.30;99.90;;;;;;4987681;28;20026;-58
2023/09/17 07:25:43;;;;;;;4.90;3.78;;;17.50;99.90;;;;;;5002016;28;20022;-58
2023/09/17 07:28:09;;;;;;;3.83;3.42;;;17.80;99.90;;;;;;4993423;28;20208;-58
2023/09/17 07:30:35;;;;;;;3.70;3.40;;;18.20;99.90;;;;;;4987176;28;20636;-60
2023/09/17 07:33:02;;;;;;;3.40;3.10;;;18.50;99.90;;;;;;4980519;28;20397;-58
2023/09/17 07:35:28;;;;;;;3.50;3.20;;;18.80;99.90;;;;;;4991127;28;20060;-59
2023/09/17 07:37:54;;;;;;;3.45;3.15;;;19.10;99.90;;;;;;4996362;28;20026;-59
2023/09/17 07:40:20;;;;;;;3.10;2.80;;;19.30;99.90;;;;;;4984980;28;20034;-60
2023/09/17 07:42:46;;;;;;;85.80;19.38;;;19.50;99.90;;;;;;4989195;28;20054;-58
2023/09/17 07:45:13;;;;;;;712.65;128.10;;;19.80;99.90;;;;;;4987503;28;20421;-58
2023/09/17 07:47:39;;;;;;;156.32;84.20;;;20.10;99.90;;;;;;4986450;28;20042;-58
2023/09/17 07:50:05;;;;;;;291.58;58.17;;;20.30;99.90;;;;;;4980875;28;20019;-58
2023/09/17 07:52:31;;;;;;;1999.90;999.90;;;20.50;99.90;;;;;;4985739;28;20046;-60
2023/09/17 07:54:57;;;;;;;1999.90;999.90;;;20.60;99.90;;;;;;4987782;28;20034;-59
2023/09/17 07:57:23;;;;;;;4.22;3.83;;;20.50;99.90;;;;;;4983835;28;20074;-58
2023/09/17 07:59:49;;;;;;;2.95;2.38;;;20.40;99.90;;;;;;4997178;28;20026;-58
2023/09/17 08:02:15;;;;;;;3.05;2.50;;;20.30;99.90;;;;;;4995913;28;20076;-60
2023/09/17 08:04:40;;;;;;;2.97;2.70;;;20.20;99.90;;;;;;4997293;28;20040;-59
2023/09/17 08:07:06;;;;;;;3.03;2.80;;;20.20;99.90;;;;;;4994656;28;20037;-59
2023/09/17 08:09:31;;;;;;;3.38;2.47;;;20.30;99.90;;;;;;4991468;28;20033;-59
2023/09/17 08:11:58;;;;;;;2.80;2.60;;;20.50;99.90;;;;;;4992115;28;20041;-59
2023/09/17 08:14:25;;;;;;;2.55;2.35;;;20.70;99.90;;;;;;4995355;28;20070;-59
2023/09/17 08:16:51;;;;;;;3.47;2.45;;;20.80;99.90;;;;;;4996247;28;20108;-60
2023/09/17 08:19:17;;;;;;;2.42;2.10;;;21.10;99.90;;;;;;4991241;28;20474;-59
2023/09/17 08:21:43;;;;;;;1.95;1.73;;;21.30;99.90;;;;;;4979461;28;20027;-59
2023/09/17 08:24:10;;;;;;;2.17;1.70;;;21.30;99.90;;;;;;4995893;28;20073;-58
2023/09/17 08:26:36;;;;;;;2.20;1.98;;;21.30;99.90;;;;;;4981141;28;20485;-59
2023/09/17 08:29:01;;;;;;;8.63;2.55;;;21.50;99.90;;;;;;4989923;28;20065;-59
2023/09/17 08:31:28;;;;;;;2.25;2.03;;;21.60;99.90;;;;;;4990290;28;20019;-59
2023/09/17 08:33:54;;;;;;;2.58;1.90;;;21.80;99.90;;;;;;4986631;28;20367;-59
2023/09/17 08:36:23;;;;;;;2.17;1.98;;;21.90;99.90;;;;;;4989035;28;20034;-60
2023/09/17 08:38:49;;;;;;;2.47;2.00;;;22.10;99.90;;;;;;4985483;28;20034;-59
2023/09/17 08:41:18;;;;;;;2.40;1.95;;;22.20;99.90;;;;;;4981613;28;20044;-59
2023/09/17 08:43:45;;;;;;;4.20;2.17;;;22.30;99.90;;;;;;4992167;28;20062;-59
2023/09/17 08:46:11;;;;;;;2.08;1.90;;;22.30;99.90;;;;;;4980203;28;20121;-59
2023/09/17 08:48:37;;;;;;;3.05;2.15;;;22.30;99.90;;;;;;4990934;28;20504;-59
2023/09/17 08:51:04;;;;;;;2.13;1.90;;;22.50;99.90;;;;;;4984763;28;20034;-59
2023/09/17 08:53:34;;;;;;;2.10;2.00;;;22.70;99.90;;;;;;4991643;28;20728;-59
2023/09/17 08:55:59;;;;;;;2.33;2.13;;;22.80;99.90;;;;;;4999577;28;20370;-60
2023/09/17 08:58:29;;;;;;;1.80;1.70;;;23.00;99.90;;;;;;4979318;28;20397;-59
2023/09/17 09:00:58;;;;;;;2.15;1.95;;;23.20;99.90;;;;;;4992901;28;20034;-59
2023/09/17 09:03:27;;;;;;;3.42;1.75;;;23.50;99.90;;;;;;4996978;28;20056;-59
2023/09/17 09:05:55;;;;;;;2.05;1.42;;;23.70;99.90;;;;;;4989523;28;20026;-59
2023/09/17 09:08:22;;;;;;;2.08;1.60;;;24.10;99.90;;;;;;4982148;28;20444;-57
2023/09/17 09:10:50;;;;;;;1615.15;769.70;;;24.80;99.90;;;;;;4985169;28;20476;-59
2023/09/17 09:13:17;;;;;;;1.20;1.00;;;25.30;99.90;;;;;;4985056;28;20034;-60
2023/09/17 09:15:43;;;;;;;1.23;1.13;;;25.80;99.90;;;;;;4987122;28;20035;-59
2023/09/17 09:18:09;;;;;;;1.67;1.25;;;26.20;93.20;;;;;;4983304;28;20116;-60
2023/09/17 09:20:36;;;;;;;2.40;2.20;;;26.50;95.30;;;;;;4984154;28;20082;-58
2023/09/17 09:23:05;;;;;;;937.38;318.60;;;26.70;89.70;;;;;;4983774;28;20455;-60
2023/09/17 09:25:31;;;;;;;32.95;18.67;;;26.80;90.60;;;;;;4985310;28;20031;-59
2023/09/17 09:28:03;;;;;;;1.40;1.30;;;27.00;86.60;;;;;;4987206;28;20070;-59
2023/09/17 09:30:29;;;;;;;1.65;1.05;;;27.20;87.10;;;;;;4983485;28;20037;-58
2023/09/17 09:32:56;;;;;;;1.40;1.30;;;27.10;83.80;;;;;;4985232;28;20030;-58
2023/09/17 09:35:23;;;;;;;1.25;1.08;;;27.10;87.90;;;;;;4986799;28;20543;-59
2023/09/17 09:37:49;;;;;;;1.20;1.10;;;27.00;89.90;;;;;;4997625;28;20055;-59
2023/09/17 09:40:15;;;;;;;1.20;1.10;;;26.60;87.70;;;;;;4993323;28;20026;-59
2023/09/17 09:42:46;;;;;;;1.60;1.50;;;26.50;90.10;;;;;;4994407;28;20037;-59
2023/09/17 09:45:15;;;;;;;2.20;1.50;;;26.40;90.80;;;;;;4991592;28;20034;-60
2023/09/17 09:47:49;;;;;;;1.50;1.27;;;26.20;91.70;;;;;;4985295;28;20031;-59
2023/09/17 09:50:25;;;;;;;1.50;1.30;;;25.80;93.80;;;;;;4988345;28;20479;-60
2023/09/17 09:52:52;;;;;;;1.20;1.10;;;25.70;99.50;;;;;;4990919;28;20033;-59
2023/09/17 09:55:18;;;;;;;1.25;0.90;;;25.60;97.70;;;;;;4986327;28;20057;-58
2023/09/17 09:57:46;;;;;;;0.70;0.70;;;25.50;99.20;;;;;;4994225;28;20040;-58
2023/09/17 10:00:13;;;;;;;2.25;0.70;;;25.40;99.20;;;;;;4990711;28;20038;-59
2023/09/17 10:02:40;;;;;;;0.60;0.60;;;25.30;99.90;;;;;;4989690;28;20579;-59
2023/09/17 10:05:07;;;;;;;1.13;0.82;;;25.40;99.90;;;;;;4984772;28;20022;-59
2023/09/17 10:07:33;;;;;;;1.08;0.98;;;25.40;99.90;;;;;;4988201;28;20478;-59
2023/09/17 10:10:00;;;;;;;1.20;1.10;;;25.30;99.20;;;;;;4978806;28;20090;-58
2023/09/17 10:12:27;;;;;;;1.95;1.85;;;25.40;99.90;;;;;;4986544;28;20052;-59
2023/09/17 10:14:53;;;;;;;4.63;1.13;;;25.50;99.90;;;;;;4980547;28;20027;-58
2023/09/17 10:17:19;;;;;;;1.00;0.95;;;25.70;99.90;;;;;;4983764;28;20490;-58
2023/09/17 10:19:47;;;;;;;1.85;0.98;;;25.80;99.90;;;;;;4988650;28;20395;-58
2023/09/17 10:22:15;;;;;;;1.45;1.13;;;25.80;98.00;;;;;;4985705;28;20027;-59
2023/09/17 10:24:42;;;;;;;1.30;1.20;;;25.80;99.00;;;;;;4982887;28;20113;-59
2023/09/17 10:27:08;;;;;;;1.05;1.05;;;25.80;99.90;;;;;;4984200;28;20062;-58
2023/09/17 10:29:35;;;;;;;1.23;0.85;;;25.90;99.90;;;;;;4991145;28;20088;-57
2023/09/17 10:32:03;;;;;;;0.95;0.90;;;25.90;99.90;;;;;;4990186;28;20038;-58
2023/09/17 10:34:31;;;;;;;1.60;1.25;;;26.00;98.30;;;;;;4993234;28;20397;-59
2023/09/17 10:36:58;;;;;;;5.45;1.45;;;26.20;95.30;;;;;;4989092;28;20116;-60
2023/09/17 10:39:29;;;;;;;1.30;1.20;;;26.50;96.80;;;;;;4993368;28;20030;-58
2023/09/17 10:41:57;;;;;;;0.90;0.90;;;26.60;94.60;;;;;;4989964;28;20026;-59
2023/09/17 10:44:25;;;;;;;1.38;1.15;;;26.80;95.40;;;;;;4990610;28;20957;-57
2023/09/17 10:46:52;;;;;;;1.30;1.10;;;27.00;96.80;;;;;;4985867;28;20023;-59
2023/09/17 10:49:18;;;;;;;1.85;1.42;;;27.10;93.40;;;;;;4988309;28;20027;-59
2023/09/17 10:51:46;;;;;;;2.33;1.20;;;27.10;94.00;;;;;;4986593;28;20039;-59
2023/09/17 10:54:12;;;;;;;0.85;0.85;;;27.10;90.60;;;;;;4981885;28;20113;-59
2023/09/17 10:56:42;;;;;;;2.15;1.02;;;27.00;90.90;;;;;;4985827;28;20103;-58
2023/09/17 10:59:13;;;;;;;4.80;1.10;;;27.00;90.50;;;;;;4992334;28;20030;-58
2023/09/17 11:01:41;;;;;;;1.30;1.10;;;27.00;92.40;;;;;;4993266;28;20282;-59
2023/09/17 11:04:16;;;;;;;1.08;0.90;;;27.00;90.60;;;;;;4987241;28;20030;-59
2023/09/17 11:06:44;;;;;;;1.25;1.15;;;27.10;90.60;;;;;;4991759;28;20026;-59
2023/09/17 11:09:11;;;;;;;1.27;0.90;;;27.20;92.20;;;;;;4994879;28;20061;-59
2023/09/17 11:11:37;;;;;;;1.65;1.33;;;27.20;89.70;;;;;;4990337;28;20034;-59
2023/09/17 11:14:04;;;;;;;1.77;1.60;;;27.20;87.20;;;;;;4995487;28;20040;-59
2023/09/17 11:16:31;;;;;;;1.10;0.82;;;27.10;90.90;;;;;;4994051;28;20129;-58
2023/09/17 11:19:08;;;;;;;0.80;0.60;;;27.20;84.00;;;;;;4994077;28;20679;-58
2023/09/17 11:21:38;;;;;;;0.90;0.60;;;27.40;75.30;;;;;;4992199;28;20678;-59
2023/09/17 11:24:06;;;;;;;0.67;0.67;;;27.50;74.20;;;;;;4993225;28;20049;-58
2023/09/17 11:26:37;;;;;;;0.68;0.68;;;27.70;74.60;;;;;;4983425;28;20045;-59
2023/09/17 11:29:07;;;;;;;0.63;0.63;;;27.80;73.90;;;;;;4989529;28;20056;-59
2023/09/17 11:32:00;;;;;;;0.50;0.43;;;27.90;72.10;;;;;;4993558;28;20022;-59
2023/09/17 11:34:26;;;;;;;0.70;0.50;;;28.00;73.20;;;;;;4993183;28;20022;-59
2023/09/17 11:36:52;;;;;;;1.00;0.70;;;28.00;71.70;;;;;;4991979;28;20409;-58
2023/09/17 11:39:21;;;;;;;0.60;0.50;;;28.10;69.20;;;;;;4994718;28;20033;-59
2023/09/17 11:41:52;;;;;;;3.95;0.75;;;28.00;70.40;;;;;;4991861;28;20027;-59
2023/09/17 11:44:19;;;;;;;0.35;0.30;;;28.10;72.40;;;;;;4987750;28;20033;-59
2023/09/17 11:46:45;;;;;;;0.57;0.50;;;28.10;64.60;;;;;;4979160;28;20022;-59
2023/09/17 11:49:11;;;;;;;0.77;0.57;;;28.20;67.70;;;;;;4985269;28;20030;-59
2023/09/17 11:51:45;;;;;;;1.05;0.40;;;28.20;68.00;;;;;;4986452;28;20034;-60
2023/09/17 11:54:15;;;;;;;0.68;0.68;;;28.20;65.20;;;;;;4990797;28;20030;-58
2023/09/17 11:56:59;;;;;;;;;;;28.10;64.50;;;;;;4990203;28;20389;-58
2023/09/17 11:59:26;;;;;;;0.40;0.40;;;28.10;68.90;;;;;;4990432;28;19984;-59
2023/09/17 12:01:57;;;;;;;0.77;0.70;;;28.20;68.00;;;;;;4983627;28;20015;-58
2023/09/17 12:04:29;;;;;;;0.47;0.45;;;28.10;69.50;;;;;;4988296;28;20125;-60
2023/09/17 12:06:55;;;;;;;0.40;0.40;;;28.00;69.50;;;;;;4991477;28;20125;-59
2023/09/17 12:11:57;;;;;;;0.50;0.50;;;27.70;68.30;;;;;;4995640;28;20061;-58
2023/09/17 12:14:23;;;;;;;0.60;0.60;;;27.70;69.10;;;;;;4984984;28;20105;-59
2023/09/17 12:16:50;;;;;;;0.82;0.73;;;27.60;70.70;;;;;;4986547;28;20029;-59
2023/09/17 12:19:17;;;;;;;1.42;1.20;;;27.60;68.50;;;;;;4986832;28;20030;-58
2023/09/17 12:21:50;;;;;;;1.20;1.10;;;27.70;69.60;;;;;;4990843;28;20033;-58
2023/09/17 12:24:35;;;;;;;5.88;0.90;;;27.70;68.10;;;;;;4987708;28;20034;-59
2023/09/17 12:27:19;;;;;;;0.90;0.80;;;27.70;69.80;;;;;;4991804;28;20022;-59
2023/09/17 12:29:45;;;;;;;0.75;0.75;;;28.00;69.50;;;;;;4985223;28;20566;-58
2023/09/17 12:32:12;;;;;;;0.88;0.80;;;28.20;67.80;;;;;;4987685;28;20065;-58
2023/09/17 12:34:39;;;;;;;1.30;1.20;;;28.40;68.00;;;;;;4993387;28;20027;-59
2023/09/17 12:37:05;;;;;;;1.20;1.00;;;28.60;67.20;;;;;;4995124;28;20034;-58
2023/09/17 12:39:31;;;;;;;2.10;1.50;;;28.80;68.70;;;;;;4993834;28;20041;-58
2023/09/17 12:41:57;;;;;;;1.10;1.00;;;28.90;67.80;;;;;;4995458;28;20027;-58